Time;durP1;ratioP1;P1;durP2;ratioP2;P2;SDS_P1;SDS_P2;PMS_P1;PMS_P2;Temp;Humidity;BMP_temperature;BMP_pressure;BME280_temperature;BME280_humidity;BME280_pressure;Samples;Min_cycle;Max_cycle;Signal;HPM_P1;HPM_P2
2022/11/02 00:01:19;;;;;;;2.47;0.35;;;12.20;99.90;;;;;;4967952;28;20039;-40
2022/11/02 00:03:46;;;;;;;3.53;0.40;;;12.20;99.90;;;;;;4969752;28;20158;-40
2022/11/02 00:06:11;;;;;;;2.78;0.30;;;12.20;99.90;;;;;;4969708;28;20395;-42
2022/11/02 00:08:37;;;;;;;2.20;0.43;;;12.20;99.90;;;;;;4967443;28;20118;-39
2022/11/02 00:11:03;;;;;;;6.43;0.70;;;12.20;99.90;;;;;;4970530;28;20558;-41
2022/11/02 00:13:28;;;;;;;3.08;0.60;;;12.10;99.90;;;;;;4970736;28;20127;-44
2022/11/02 00:15:54;;;;;;;4.28;1.02;;;12.20;99.90;;;;;;4969542;28;20048;-42
2022/11/02 00:18:20;;;;;;;2.75;0.65;;;12.10;99.90;;;;;;4973583;28;20050;-40
2022/11/02 00:20:46;;;;;;;6.45;0.80;;;12.10;99.90;;;;;;4967631;28;20041;-41
2022/11/02 00:23:13;;;;;;;6.25;1.95;;;12.10;99.90;;;;;;4962908;28;20042;-40
2022/11/02 00:25:46;;;;;;;6.57;1.02;;;12.10;99.90;;;;;;4953492;28;20038;-43
2022/11/02 00:28:13;;;;;;;3.70;0.60;;;12.10;99.90;;;;;;4970188;28;20045;-45
2022/11/02 00:30:38;;;;;;;6.40;0.98;;;12.20;99.90;;;;;;4969777;28;20078;-39
2022/11/02 00:33:04;;;;;;;4.47;0.60;;;12.20;99.90;;;;;;4968459;28;20576;-44
2022/11/02 00:35:30;;;;;;;6.43;0.77;;;12.20;99.90;;;;;;4969290;28;20130;-42
2022/11/02 00:37:55;;;;;;;6.00;0.77;;;12.20;99.90;;;;;;4968369;28;20078;-41
2022/11/02 00:40:21;;;;;;;9.00;1.00;;;12.20;99.90;;;;;;4967799;28;20037;-42
2022/11/02 00:42:47;;;;;;;8.15;0.90;;;12.30;99.90;;;;;;4967912;28;20081;-42
2022/11/02 00:45:12;;;;;;;2.15;0.50;;;12.30;99.90;;;;;;4968304;28;20046;-43
2022/11/02 00:47:38;;;;;;;1.95;0.60;;;12.20;99.90;;;;;;4973351;28;20519;-41
2022/11/02 00:50:04;;;;;;;2.67;0.52;;;12.10;99.90;;;;;;4965296;28;20039;-42
2022/11/02 00:52:30;;;;;;;1.92;0.40;;;12.00;99.90;;;;;;4970635;28;20161;-43
2022/11/02 00:54:56;;;;;;;4.13;0.43;;;12.00;99.90;;;;;;4966448;28;20074;-39
2022/11/02 00:57:22;;;;;;;3.67;0.52;;;12.00;99.90;;;;;;4963334;28;20039;-40
2022/11/02 00:59:47;;;;;;;5.18;0.65;;;11.90;99.90;;;;;;4968168;28;20101;-40
2022/11/02 01:02:13;;;;;;;4.75;0.70;;;11.90;99.90;;;;;;4969636;28;20050;-40
2022/11/02 01:04:39;;;;;;;6.22;0.85;;;11.90;99.90;;;;;;4967335;28;20186;-43
2022/11/02 01:07:05;;;;;;;6.22;0.93;;;11.80;99.90;;;;;;4968236;28;20035;-39
2022/11/02 01:09:30;;;;;;;8.55;1.10;;;11.80;99.90;;;;;;4969224;28;20169;-40
2022/11/02 01:11:56;;;;;;;4.43;0.55;;;11.80;99.90;;;;;;4968253;28;20515;-41
2022/11/02 01:14:22;;;;;;;5.93;1.00;;;11.80;99.90;;;;;;4962855;28;20038;-38
2022/11/02 01:16:48;;;;;;;4.35;0.82;;;11.80;99.90;;;;;;4966431;28;20027;-39
2022/11/02 01:19:13;;;;;;;6.47;0.90;;;11.90;99.90;;;;;;4968966;28;20579;-42
2022/11/02 01:21:39;;;;;;;10.90;1.30;;;11.90;99.90;;;;;;4966060;28;20519;-39
2022/11/02 01:24:05;;;;;;;4.50;0.82;;;11.90;99.90;;;;;;4959626;28;20507;-45
2022/11/02 01:26:31;;;;;;;5.32;0.93;;;11.90;99.90;;;;;;4965310;28;20452;-40
2022/11/02 01:28:57;;;;;;;7.05;1.23;;;11.90;99.90;;;;;;4962527;28;20140;-39
2022/11/02 01:31:22;;;;;;;6.45;1.10;;;12.00;99.90;;;;;;4967806;28;20062;-41
2022/11/02 01:33:48;;;;;;;6.60;0.70;;;12.00;99.90;;;;;;4967554;28;20043;-42
2022/11/02 01:36:20;;;;;;;8.50;0.98;;;12.00;99.90;;;;;;4973739;28;20404;-42
2022/11/02 01:38:46;;;;;;;7.28;0.98;;;12.00;99.90;;;;;;4972512;28;20057;-41
2022/11/02 01:41:12;;;;;;;6.57;1.02;;;12.00;99.90;;;;;;4968451;28;20046;-41
2022/11/02 01:43:41;;;;;;;5.55;0.82;;;12.00;99.90;;;;;;4964422;28;20053;-41
2022/11/02 01:46:17;;;;;;;7.72;0.90;;;12.10;99.90;;;;;;4962958;28;20045;-39
2022/11/02 01:48:52;;;;;;;10.63;2.85;;;12.10;99.90;;;;;;4971978;28;20170;-41
2022/11/02 01:51:30;;;;;;;9.15;1.10;;;12.20;99.90;;;;;;4967430;28;20039;-40
2022/11/02 01:53:59;;;;;;;6.20;1.02;;;12.10;99.90;;;;;;4970323;28;20043;-41
2022/11/02 01:56:30;;;;;;;7.07;1.00;;;12.20;99.90;;;;;;4961585;28;20516;-41
2022/11/02 01:59:01;;;;;;;5.28;1.00;;;12.20;99.90;;;;;;4966296;28;20051;-42
2022/11/02 02:01:27;;;;;;;6.53;1.38;;;12.20;99.90;;;;;;4968406;28;20047;-41
2022/11/02 02:03:55;;;;;;;2.45;0.38;;;12.20;99.90;;;;;;4969809;28;20054;-41
2022/11/02 02:06:21;;;;;;;2.05;0.63;;;12.20;99.90;;;;;;4953286;28;20058;-42
2022/11/02 02:08:49;;;;;;;2.13;0.20;;;12.00;99.90;;;;;;4969236;28;20043;-40
2022/11/02 02:11:44;;;;;;;1.10;0.20;;;11.90;99.90;;;;;;4968961;28;20193;-42
2022/11/02 02:14:15;;;;;;;0.73;0.10;;;11.70;99.90;;;;;;4949040;28;20043;-41
2022/11/02 02:17:01;;;;;;;1.23;0.20;;;11.60;99.90;;;;;;4966690;28;20109;-41
2022/11/02 02:19:41;;;;;;;0.75;0.10;;;11.50;99.90;;;;;;4969233;28;20053;-39
2022/11/02 02:22:31;;;;;;;0.60;0.15;;;11.40;99.90;;;;;;4962907;28;20129;-41
2022/11/02 02:25:24;;;;;;;2.17;0.28;;;11.30;99.90;;;;;;4965955;28;20046;-41
2022/11/02 02:28:05;;;;;;;4.70;0.43;;;11.20;99.90;;;;;;4964343;28;20043;-42
2022/11/02 02:30:37;;;;;;;3.83;0.90;;;11.20;99.90;;;;;;4949376;28;20087;-41
2022/11/02 02:33:09;;;;;;;;;;;11.20;99.90;;;;;;4965419;28;20547;-39
2022/11/02 02:35:47;;;;;;;3.42;0.60;;;11.20;99.90;;;;;;4964342;28;19917;-40
2022/11/02 02:38:40;;;;;;;6.80;0.82;;;11.30;99.90;;;;;;4966753;28;20127;-42
2022/11/02 02:41:06;;;;;;;;;;;11.40;99.90;;;;;;4965696;28;20038;-40
2022/11/02 02:43:36;;;;;;;4.20;0.40;;;11.40;99.90;;;;;;4950379;28;19976;-40
2022/11/02 02:46:22;;;;;;;2.50;0.47;;;11.40;99.90;;;;;;4968456;28;20050;-42
2022/11/02 02:48:50;;;;;;;5.93;0.90;;;11.40;99.90;;;;;;4968593;28;20051;-41
2022/11/02 02:51:23;;;;;;;5.00;0.40;;;11.30;99.90;;;;;;4958803;28;20114;-39
2022/11/02 02:54:12;;;;;;;1.65;0.32;;;11.30;99.90;;;;;;4968319;28;20059;-42
2022/11/02 02:56:42;;;;;;;3.40;0.30;;;11.20;99.90;;;;;;4961074;28;20050;-40
2022/11/02 02:59:12;;;;;;;1.58;0.20;;;11.20;99.90;;;;;;4963721;28;20097;-40
2022/11/02 03:01:43;;;;;;;2.38;0.40;;;11.10;99.90;;;;;;4965018;28;20496;-42
2022/11/02 03:04:12;;;;;;;3.15;0.45;;;11.00;99.90;;;;;;4963642;28;20106;-42
2022/11/02 03:06:40;;;;;;;3.63;0.22;;;10.90;99.90;;;;;;4949682;28;20039;-39
2022/11/02 03:09:17;;;;;;;6.80;0.43;;;10.90;99.90;;;;;;4974462;28;20031;-39
2022/11/02 03:11:53;;;;;;;2.13;0.10;;;10.90;99.90;;;;;;4964989;28;20520;-41
2022/11/02 03:14:43;;;;;;;3.38;0.30;;;10.80;99.90;;;;;;4973164;28;20035;-42
2022/11/02 03:17:14;;;;;;;2.67;0.32;;;10.70;99.90;;;;;;4966820;28;20039;-40
2022/11/02 03:19:54;;;;;;;2.45;0.40;;;10.70;99.90;;;;;;4970155;28;20543;-39
2022/11/02 03:22:32;;;;;;;5.60;0.50;;;10.70;99.90;;;;;;4962000;28;20043;-42
2022/11/02 03:25:18;;;;;;;1.98;0.20;;;10.70;99.90;;;;;;4948800;28;20046;-42
2022/11/02 03:28:01;;;;;;;2.28;0.30;;;10.70;99.90;;;;;;4972334;28;20041;-41
2022/11/02 03:30:32;;;;;;;4.18;0.30;;;10.70;99.90;;;;;;4967558;28;20077;-40
2022/11/02 03:33:13;;;;;;;2.40;0.30;;;10.70;99.90;;;;;;4955974;28;20050;-40
2022/11/02 03:35:55;;;;;;;10.45;0.50;;;10.70;99.90;;;;;;4972237;28;20121;-42
2022/11/02 03:38:53;;;;;;;2.58;0.95;;;10.70;99.90;;;;;;4971288;28;20089;-41
2022/11/02 03:41:21;;;;;;;2.03;0.47;;;10.70;99.90;;;;;;4948228;28;20531;-41
2022/11/02 03:43:50;;;;;;;2.63;0.30;;;10.80;99.90;;;;;;4964640;28;20045;-41
2022/11/02 03:46:18;;;;;;;3.08;0.32;;;10.70;99.90;;;;;;4970004;28;20070;-39
2022/11/02 03:48:49;;;;;;;3.15;0.40;;;10.70;99.90;;;;;;4970030;28;20039;-40
2022/11/02 03:51:18;;;;;;;12.73;1.27;;;10.70;99.90;;;;;;4964970;28;20051;-40
2022/11/02 03:53:55;;;;;;;4.95;0.40;;;10.80;99.90;;;;;;4968998;28;20138;-41
2022/11/02 03:56:32;;;;;;;2.60;0.30;;;10.80;99.90;;;;;;4965385;28;20070;-41
2022/11/02 03:58:58;;;;;;;2.08;0.35;;;10.80;99.90;;;;;;4966440;28;20046;-41
2022/11/02 04:01:25;;;;;;;4.47;1.30;;;10.80;99.90;;;;;;4968000;28;20039;-39
2022/11/02 04:03:51;;;;;;;3.75;0.35;;;10.80;99.90;;;;;;4956677;28;20083;-42
2022/11/02 04:06:17;;;;;;;3.53;0.80;;;10.80;99.90;;;;;;4962503;28;20047;-40
2022/11/02 04:08:46;;;;;;;3.70;0.50;;;10.80;99.90;;;;;;4969231;28;20483;-40
2022/11/02 04:16:41;;;;;;;2.88;0.80;;;10.80;99.90;;;;;;4964315;28;20054;-41
2022/11/02 04:19:27;;;;;;;4.03;0.50;;;10.80;99.90;;;;;;4967073;28;20049;-40
2022/11/02 04:27:23;;;;;;;5.22;0.50;;;10.80;99.90;;;;;;4963988;28;20043;-39
2022/11/02 04:29:48;;;;;;;4.30;0.60;;;10.90;99.90;;;;;;4968451;28;20034;-42
2022/11/02 04:33:31;;;;;;;5.45;0.63;;;10.90;99.90;;;;;;4970822;28;20047;-42
2022/11/02 04:35:00;;;;;;;4.05;0.73;;;10.90;99.90;;;;;;4963237;28;20081;-43
2022/11/02 04:40:10;;;;;;;8.90;0.60;;;11.00;99.90;;;;;;4971075;28;20050;-40
2022/11/02 04:42:36;;;;;;;6.20;0.90;;;11.00;99.90;;;;;;4961336;28;20050;-43
2022/11/02 04:45:02;;;;;;;3.25;0.50;;;11.00;99.90;;;;;;4968804;28;20476;-41
2022/11/02 04:47:28;;;;;;;5.43;0.70;;;11.10;99.90;;;;;;4969866;28;20404;-40
2022/11/02 04:49:53;;;;;;;9.38;0.70;;;11.10;99.90;;;;;;4976727;28;20149;-40
2022/11/02 04:52:19;;;;;;;4.45;0.80;;;11.10;99.90;;;;;;4967693;28;20078;-40
2022/11/02 04:54:45;;;;;;;4.15;0.68;;;11.00;99.90;;;;;;4966040;28;20034;-40
2022/11/02 04:57:10;;;;;;;7.22;1.30;;;11.00;99.90;;;;;;4965470;28;20212;-41
2022/11/02 04:59:36;;;;;;;4.80;0.63;;;11.10;99.90;;;;;;4967965;28;20070;-41
2022/11/02 05:02:01;;;;;;;5.05;0.80;;;11.10;99.90;;;;;;4968997;28;20081;-41
2022/11/02 05:04:27;;;;;;;7.80;0.85;;;11.20;99.90;;;;;;4967927;28;20140;-41
2022/11/02 05:06:53;;;;;;;5.97;0.80;;;11.20;99.90;;;;;;4965854;28;20461;-41
2022/11/02 05:09:18;;;;;;;7.47;1.30;;;11.30;99.90;;;;;;4967332;28;20041;-40
2022/11/02 05:11:44;;;;;;;3.90;0.43;;;11.30;99.90;;;;;;4970267;28;20053;-42
2022/11/02 05:14:10;;;;;;;7.13;0.93;;;11.30;99.90;;;;;;4969117;28;20449;-42
2022/11/02 05:16:35;;;;;;;7.53;1.40;;;11.20;99.90;;;;;;4968033;28;20443;-38
2022/11/02 05:19:01;;;;;;;9.20;1.23;;;11.10;99.90;;;;;;4970462;28;20038;-42
2022/11/02 05:21:27;;;;;;;8.60;1.02;;;11.00;99.90;;;;;;4971011;28;20460;-41
2022/11/02 05:23:52;;;;;;;6.88;1.13;;;11.00;99.90;;;;;;4969182;28;20073;-39
2022/11/02 05:26:18;;;;;;;5.22;0.90;;;10.90;99.90;;;;;;4966325;28;20039;-41
2022/11/02 05:28:44;;;;;;;9.80;1.50;;;10.90;99.90;;;;;;4965440;28;20066;-41
2022/11/02 05:31:09;;;;;;;7.25;0.88;;;10.90;99.90;;;;;;4970484;28;20055;-41
2022/11/02 05:33:35;;;;;;;5.82;0.95;;;11.00;99.90;;;;;;4967346;28;20086;-40
2022/11/02 05:36:02;;;;;;;6.90;1.70;;;11.00;99.90;;;;;;4968637;28;20039;-41
2022/11/02 05:38:28;;;;;;;8.73;1.05;;;10.90;99.90;;;;;;4964401;28;20050;-41
2022/11/02 05:40:58;;;;;;;11.85;2.17;;;10.90;99.90;;;;;;4964394;28;20047;-41
2022/11/02 05:43:24;;;;;;;7.22;1.17;;;10.90;99.90;;;;;;4970106;28;20059;-40
2022/11/02 05:46:00;;;;;;;8.15;1.38;;;10.90;99.90;;;;;;4975426;28;20042;-40
2022/11/02 05:48:29;;;;;;;5.85;0.90;;;10.90;99.90;;;;;;4967073;28;20066;-40
2022/11/02 05:50:59;;;;;;;5.57;1.13;;;10.90;99.90;;;;;;4951652;28;20089;-40
2022/11/02 05:53:26;;;;;;;9.85;1.27;;;10.90;99.90;;;;;;4966274;28;20043;-40
2022/11/02 05:55:57;;;;;;;6.00;0.88;;;10.90;99.90;;;;;;4972056;28;20117;-39
2022/11/02 05:58:23;;;;;;;9.35;0.90;;;10.90;99.90;;;;;;4964298;28;20067;-40
2022/11/02 06:00:48;;;;;;;6.53;1.10;;;10.90;99.90;;;;;;4967720;28;20496;-45
2022/11/02 06:03:16;;;;;;;9.57;1.85;;;10.90;99.90;;;;;;4967167;28;20100;-42
2022/11/02 06:05:42;;;;;;;5.30;0.85;;;10.90;99.90;;;;;;4949010;28;20121;-41
2022/11/02 06:08:07;;;;;;;7.20;1.27;;;10.90;99.90;;;;;;4967954;28;20119;-40
2022/11/02 06:10:33;;;;;;;5.82;1.20;;;10.80;99.90;;;;;;4963473;28;20043;-40
2022/11/02 06:13:01;;;;;;;4.60;1.50;;;10.90;99.90;;;;;;4947982;28;20500;-41
2022/11/02 06:15:29;;;;;;;7.63;1.02;;;10.80;99.90;;;;;;4967182;28;20078;-40
2022/11/02 06:17:55;;;;;;;5.50;1.00;;;10.80;99.90;;;;;;4965495;28;20443;-39
2022/11/02 06:20:21;;;;;;;9.13;1.42;;;10.80;99.90;;;;;;4961871;28;20046;-40
2022/11/02 06:22:46;;;;;;;9.18;1.35;;;10.80;99.90;;;;;;4968861;28;20043;-41
2022/11/02 06:25:13;;;;;;;10.18;1.15;;;10.80;99.90;;;;;;4966477;28;20169;-42
2022/11/02 06:27:40;;;;;;;5.65;0.88;;;10.80;99.90;;;;;;4968031;28;20051;-41
2022/11/02 06:30:07;;;;;;;7.22;0.85;;;10.70;99.90;;;;;;4948047;28;20081;-39
2022/11/02 06:32:33;;;;;;;7.95;1.48;;;10.70;99.90;;;;;;4965765;28;20046;-41
2022/11/02 06:34:59;;;;;;;8.25;1.13;;;10.70;99.90;;;;;;4964995;28;20130;-41
2022/11/02 06:37:25;;;;;;;11.02;1.55;;;10.70;99.90;;;;;;4949030;28;20046;-40
2022/11/02 06:39:51;;;;;;;8.85;1.10;;;10.70;99.90;;;;;;4963018;28;20042;-39
2022/11/02 06:42:16;;;;;;;8.93;1.23;;;10.60;99.90;;;;;;4965873;28;20408;-41
2022/11/02 06:44:42;;;;;;;9.68;1.63;;;10.60;99.90;;;;;;4968681;28;20396;-40
2022/11/02 06:47:08;;;;;;;7.75;0.93;;;10.60;99.90;;;;;;4964772;28;20440;-40
2022/11/02 06:49:33;;;;;;;10.35;1.10;;;10.60;99.90;;;;;;4973117;28;20106;-39
2022/11/02 06:51:59;;;;;;;11.00;1.45;;;10.60;99.90;;;;;;4973287;28;20074;-41
2022/11/02 06:54:25;;;;;;;10.18;1.38;;;10.70;99.90;;;;;;4964259;28;20046;-41
2022/11/02 06:56:50;;;;;;;8.43;1.10;;;10.70;99.90;;;;;;4959569;28;20074;-41
2022/11/02 06:59:16;;;;;;;9.55;1.13;;;10.80;99.90;;;;;;4963446;28;20461;-40
2022/11/02 07:01:42;;;;;;;4.40;0.60;;;10.80;99.90;;;;;;4968211;28;20122;-38
2022/11/02 07:04:07;;;;;;;15.65;2.20;;;10.90;99.90;;;;;;4969992;28;20534;-38
2022/11/02 07:06:33;;;;;;;7.43;1.20;;;10.90;99.90;;;;;;4967421;28;20043;-38
2022/11/02 07:08:59;;;;;;;5.75;0.85;;;10.90;99.90;;;;;;4968447;28;20440;-38
2022/11/02 07:11:24;;;;;;;10.70;1.05;;;11.00;99.90;;;;;;4968303;28;20401;-38
2022/11/02 07:13:50;;;;;;;8.40;1.30;;;11.00;99.90;;;;;;4966106;28;20090;-38
2022/11/02 07:16:16;;;;;;;10.73;1.90;;;11.00;99.90;;;;;;4965709;28;20445;-40
2022/11/02 07:18:41;;;;;;;5.50;1.10;;;11.10;99.90;;;;;;4970948;28;20386;-38
2022/11/02 07:21:10;;;;;;;3.33;0.95;;;11.10;99.90;;;;;;4953143;28;20034;-38
2022/11/02 07:23:35;;;;;;;6.60;0.47;;;11.10;99.90;;;;;;4965469;28;20043;-39
2022/11/02 07:26:01;;;;;;;11.23;1.35;;;11.20;99.90;;;;;;4974536;28;20039;-39
2022/11/02 07:28:27;;;;;;;11.50;0.60;;;11.20;99.90;;;;;;4950633;28;20472;-39
2022/11/02 07:30:54;;;;;;;9.32;0.80;;;11.20;99.90;;;;;;4967349;28;20053;-38
2022/11/02 07:33:20;;;;;;;7.22;0.73;;;11.30;99.90;;;;;;4970048;28;20061;-39
2022/11/02 07:35:45;;;;;;;8.40;0.90;;;11.30;99.90;;;;;;4969372;28;20038;-40
2022/11/02 07:38:11;;;;;;;10.57;1.00;;;11.30;99.90;;;;;;4966768;28;20046;-42
2022/11/02 07:40:37;;;;;;;6.72;0.82;;;11.30;99.90;;;;;;4970019;28;20411;-40
2022/11/02 07:43:04;;;;;;;8.30;1.00;;;11.30;99.90;;;;;;4975151;28;20527;-40
2022/11/02 07:45:30;;;;;;;9.40;1.00;;;11.30;99.90;;;;;;4965612;28;20482;-42
2022/11/02 07:47:56;;;;;;;5.82;0.60;;;11.30;99.90;;;;;;4964550;28;20435;-40
2022/11/02 07:50:23;;;;;;;5.10;0.57;;;11.30;99.90;;;;;;4964776;28;20035;-40
2022/11/02 07:52:55;;;;;;;2.80;0.50;;;11.30;99.90;;;;;;4965241;28;20047;-40
2022/11/02 07:55:23;;;;;;;7.28;0.63;;;11.30;99.90;;;;;;4966462;28;20038;-40
2022/11/02 07:57:56;;;;;;;6.55;0.70;;;11.30;99.90;;;;;;4968397;28;20053;-40
2022/11/02 08:00:22;;;;;;;6.20;0.90;;;11.30;99.90;;;;;;4968006;28;20051;-39
2022/11/02 08:02:48;;;;;;;4.22;0.98;;;11.30;99.90;;;;;;4966590;28;20050;-44
2022/11/02 08:05:14;;;;;;;7.90;1.00;;;11.30;99.90;;;;;;4966587;28;20548;-40
2022/11/02 08:07:39;;;;;;;4.68;0.60;;;11.30;99.90;;;;;;4970488;28;20042;-40
2022/11/02 08:10:06;;;;;;;8.98;1.13;;;11.30;99.90;;;;;;4969130;28;20026;-40
2022/11/02 08:12:31;;;;;;;4.60;1.42;;;11.40;99.90;;;;;;4965190;28;20031;-41
2022/11/02 08:14:57;;;;;;;6.05;0.80;;;11.40;99.90;;;;;;4967278;28;20064;-41
2022/11/02 08:17:23;;;;;;;7.20;0.40;;;11.40;99.90;;;;;;4971500;28;20409;-41
2022/11/02 08:19:48;;;;;;;6.30;0.60;;;11.40;99.90;;;;;;4970707;28;20039;-41
2022/11/02 08:22:14;;;;;;;7.78;0.90;;;11.40;99.90;;;;;;4973331;28;20185;-41
2022/11/02 08:24:40;;;;;;;5.97;0.60;;;11.40;99.90;;;;;;4970120;28;20041;-42
2022/11/02 08:27:05;;;;;;;4.40;0.60;;;11.40;99.90;;;;;;4971306;28;20042;-40
2022/11/02 08:29:31;;;;;;;4.50;0.50;;;11.40;99.90;;;;;;4979659;28;20054;-41
2022/11/02 08:31:57;;;;;;;2.38;0.50;;;11.40;99.90;;;;;;4972454;28;20047;-42
2022/11/02 08:34:22;;;;;;;2.90;0.82;;;11.50;99.90;;;;;;4970085;28;20042;-40
2022/11/02 08:36:48;;;;;;;5.28;0.65;;;11.50;99.90;;;;;;4971486;28;20483;-41
2022/11/02 08:39:14;;;;;;;8.40;0.75;;;11.60;99.90;;;;;;4972568;28;20807;-41
2022/11/02 08:41:39;;;;;;;2.45;0.45;;;11.60;99.90;;;;;;4968794;28;20077;-41
2022/11/02 08:44:05;;;;;;;5.15;0.50;;;11.60;99.90;;;;;;4972137;28;20039;-41
2022/11/02 08:46:30;;;;;;;6.40;0.50;;;11.70;99.90;;;;;;4969684;28;20042;-42
2022/11/02 08:48:56;;;;;;;4.18;0.47;;;11.80;99.90;;;;;;4968473;28;20130;-40
2022/11/02 08:51:22;;;;;;;5.45;0.55;;;11.80;99.90;;;;;;4968763;28;20078;-41
2022/11/02 08:53:47;;;;;;;4.55;0.47;;;11.90;99.90;;;;;;4959198;28;20085;-40
2022/11/02 08:56:13;;;;;;;3.53;0.40;;;12.00;99.90;;;;;;4966856;28;20448;-43
2022/11/02 08:58:39;;;;;;;3.10;0.38;;;12.00;99.90;;;;;;4971656;28;20607;-41
2022/11/02 09:01:04;;;;;;;5.78;0.40;;;12.10;99.90;;;;;;4964675;28;20077;-40
2022/11/02 09:03:30;;;;;;;6.47;0.93;;;12.10;99.90;;;;;;4964801;28;20493;-42
2022/11/02 09:06:01;;;;;;;2.92;0.60;;;12.20;99.90;;;;;;4963376;28;20760;-40
2022/11/02 09:08:28;;;;;;;5.75;0.93;;;12.20;99.90;;;;;;4964548;28;20134;-41
2022/11/02 09:11:01;;;;;;;6.57;1.17;;;12.20;99.90;;;;;;4971931;28;20484;-42
2022/11/02 09:13:27;;;;;;;5.82;0.50;;;12.20;99.90;;;;;;4967877;28;20062;-41
2022/11/02 09:15:55;;;;;;;6.32;0.60;;;12.20;99.90;;;;;;4969356;28;20049;-44
2022/11/02 09:18:22;;;;;;;5.53;0.70;;;12.30;99.90;;;;;;4978982;28;20038;-42
2022/11/02 09:20:48;;;;;;;3.10;0.43;;;12.40;99.90;;;;;;4972023;28;20440;-42
2022/11/02 09:23:19;;;;;;;4.57;0.52;;;12.40;99.90;;;;;;4970252;28;20050;-42
2022/11/02 09:25:45;;;;;;;10.45;0.75;;;12.50;99.90;;;;;;4968689;28;20046;-41
2022/11/02 09:28:11;;;;;;;7.22;0.68;;;12.50;99.90;;;;;;4971360;28;20411;-40
2022/11/02 09:30:37;;;;;;;6.38;0.68;;;12.50;99.90;;;;;;4970592;28;20134;-41
2022/11/02 09:33:05;;;;;;;3.55;0.40;;;12.60;99.90;;;;;;4963085;28;20467;-41
2022/11/02 09:35:33;;;;;;;9.60;0.50;;;12.60;99.90;;;;;;4964978;28;20046;-39
2022/11/02 09:37:59;;;;;;;3.75;0.80;;;12.70;99.90;;;;;;4968198;28;20128;-40
2022/11/02 09:40:34;;;;;;;5.50;0.57;;;12.80;99.90;;;;;;4971322;28;20055;-41
2022/11/02 09:43:19;;;;;;;6.30;1.02;;;12.90;99.90;;;;;;4964901;28;20094;-40
2022/11/02 09:45:52;;;;;;;4.72;0.93;;;12.90;99.30;;;;;;4962641;28;20049;-39
2022/11/02 09:48:19;;;;;;;;;;;12.90;99.10;;;;;;4964869;28;20078;-40
2022/11/02 09:50:49;;;;;;;8.82;1.00;;;12.90;98.20;;;;;;4964931;28;19932;-40
2022/11/02 09:53:22;;;;;;;7.55;0.88;;;12.90;98.60;;;;;;4957908;28;20355;-39
2022/11/02 09:55:55;;;;;;;2.95;0.55;;;12.80;99.40;;;;;;4967136;28;20047;-41
2022/11/02 09:58:27;;;;;;;5.75;0.60;;;12.80;97.00;;;;;;4965386;28;20058;-42
2022/11/02 10:00:58;;;;;;;7.90;0.70;;;12.80;97.40;;;;;;4964473;28;20413;-40
2022/11/02 10:03:46;;;;;;;7.13;0.60;;;12.80;98.30;;;;;;4961346;28;20042;-39
2022/11/02 10:06:18;;;;;;;7.07;0.50;;;12.80;97.20;;;;;;4946851;28;20046;-41
2022/11/02 10:08:53;;;;;;;4.45;0.80;;;12.80;97.50;;;;;;4951397;28;20070;-41
2022/11/02 10:11:37;;;;;;;2.30;0.50;;;13.00;97.90;;;;;;4963561;28;20046;-41
2022/11/02 10:14:29;;;;;;;6.25;0.68;;;13.10;97.90;;;;;;4972365;28;20038;-41
2022/11/02 10:17:13;;;;;;;2.95;0.40;;;13.20;96.90;;;;;;4961420;28;20861;-40
2022/11/02 10:19:40;;;;;;;12.23;0.80;;;13.20;96.90;;;;;;4970250;28;20126;-39
2022/11/02 10:22:11;;;;;;;6.57;1.45;;;13.30;96.60;;;;;;4976429;28;20122;-41
2022/11/02 10:24:47;;;;;;;6.90;1.10;;;13.40;96.20;;;;;;4979484;28;20392;-41
2022/11/02 10:27:26;;;;;;;7.97;0.50;;;13.50;95.50;;;;;;4963956;28;20043;-41
2022/11/02 10:30:22;;;;;;;3.42;0.75;;;13.60;94.60;;;;;;4971769;28;20113;-40
2022/11/02 10:32:53;;;;;;;6.45;0.55;;;13.70;95.20;;;;;;4972784;28;20130;-40
2022/11/02 10:36:06;;;;;;;4.25;0.60;;;13.80;95.20;;;;;;4979297;28;20050;-40
2022/11/02 10:38:40;;;;;;;;;;;13.90;92.70;;;;;;4931563;29;20390;-41
2022/11/02 10:41:43;;;;;;;4.70;0.45;;;13.90;91.60;;;;;;4931938;29;20348;-40
2022/11/02 10:44:27;;;;;;;;;;;13.80;93.50;;;;;;4966876;28;20084;-40
2022/11/02 10:47:16;;;;;;;5.22;0.90;;;13.80;93.40;;;;;;4965763;28;20384;-41
2022/11/02 10:50:13;;;;;;;6.90;0.73;;;13.80;93.40;;;;;;4973827;28;20057;-40
2022/11/02 10:52:42;;;;;;;3.97;0.93;;;13.90;91.20;;;;;;4969179;28;20556;-41
2022/11/02 10:55:58;;;;;;;7.68;0.68;;;14.00;92.30;;;;;;4971296;28;20049;-40
2022/11/02 10:58:26;;;;;;;5.25;1.02;;;14.00;91.00;;;;;;4946905;28;20047;-41
2022/11/02 11:01:07;;;;;;;5.80;0.68;;;14.20;91.20;;;;;;4977921;28;20507;-41
2022/11/02 11:03:33;;;;;;;6.03;0.70;;;14.20;91.60;;;;;;4977076;28;20042;-41
2022/11/02 11:06:03;;;;;;;7.85;0.52;;;14.10;90.40;;;;;;4971471;28;20089;-40
2022/11/02 11:08:41;;;;;;;6.85;0.70;;;14.10;91.00;;;;;;4973634;28;20554;-41
2022/11/02 11:11:20;;;;;;;4.53;0.50;;;14.20;91.70;;;;;;4955514;28;20051;-41
2022/11/02 11:14:01;;;;;;;5.43;0.90;;;14.10;90.60;;;;;;4974556;28;20072;-40
2022/11/02 11:16:47;;;;;;;7.07;0.82;;;14.10;88.50;;;;;;4975316;28;20078;-40
2022/11/02 11:19:31;;;;;;;5.10;0.50;;;14.30;88.40;;;;;;4966583;28;20039;-40
2022/11/02 11:21:57;;;;;;;4.03;0.60;;;14.70;86.90;;;;;;4964223;28;20042;-39
2022/11/02 11:24:33;;;;;;;3.63;0.45;;;15.00;85.50;;;;;;4966196;28;20038;-41
2022/11/02 11:27:10;;;;;;;5.60;0.60;;;14.90;83.70;;;;;;4955645;28;20411;-40
2022/11/02 11:29:38;;;;;;;4.35;0.40;;;14.70;83.50;;;;;;4965432;28;20081;-39
2022/11/02 11:32:25;;;;;;;3.67;0.30;;;14.60;82.70;;;;;;4960722;28;20051;-40
2022/11/02 11:35:03;;;;;;;4.22;0.60;;;14.70;82.00;;;;;;4963979;28;20548;-40
2022/11/02 11:37:30;;;;;;;3.38;0.85;;;14.90;81.60;;;;;;4968820;28;20035;-41
2022/11/02 11:40:05;;;;;;;4.45;0.60;;;15.10;78.50;;;;;;4967520;28;20047;-40
2022/11/02 11:42:35;;;;;;;3.10;0.50;;;15.10;79.70;;;;;;4951035;28;20046;-40
2022/11/02 11:45:05;;;;;;;2.97;0.40;;;15.00;77.90;;;;;;4969273;28;20054;-41
2022/11/02 11:47:37;;;;;;;4.30;0.57;;;15.20;76.40;;;;;;4967042;28;20047;-41
2022/11/02 11:50:11;;;;;;;;;;;15.60;75.60;;;;;;4971435;28;20111;-39
2022/11/02 11:52:38;;;;;;;5.05;0.45;;;15.50;72.50;;;;;;4961002;28;19918;-39
2022/11/02 11:55:21;;;;;;;7.18;0.93;;;15.60;78.00;;;;;;4966816;28;20035;-41
2022/11/02 11:58:12;;;;;;;7.03;0.50;;;15.40;71.90;;;;;;4969434;28;20500;-41
2022/11/02 12:00:37;;;;;;;5.80;0.68;;;15.20;76.50;;;;;;4968491;28;20034;-40
2022/11/02 12:03:09;;;;;;;3.03;0.40;;;15.40;77.40;;;;;;4953423;28;20045;-39
2022/11/02 12:06:05;;;;;;;4.65;0.57;;;15.80;72.70;;;;;;4966184;28;20527;-40
2022/11/02 12:08:39;;;;;;;4.78;0.55;;;16.40;74.70;;;;;;4968090;28;20514;-43
2022/11/02 12:11:07;;;;;;;3.25;0.32;;;16.90;71.40;;;;;;4969121;28;20515;-40
2022/11/02 12:13:57;;;;;;;4.97;1.00;;;17.40;70.80;;;;;;4967984;28;20055;-42
2022/11/02 12:16:41;;;;;;;4.72;0.88;;;17.60;65.90;;;;;;4965409;28;20066;-42
2022/11/02 12:19:36;;;;;;;5.75;0.70;;;17.80;66.20;;;;;;4968604;28;20534;-40
2022/11/02 12:22:15;;;;;;;5.72;0.70;;;17.90;66.20;;;;;;4967887;28;20857;-40
2022/11/02 12:24:47;;;;;;;5.65;0.65;;;17.30;65.80;;;;;;4962716;28;20054;-41
2022/11/02 12:27:56;;;;;;;7.43;0.88;;;17.20;66.80;;;;;;4946502;28;20053;-40
2022/11/02 12:30:27;;;;;;;5.10;0.50;;;17.20;66.30;;;;;;4961308;28;20041;-40
2022/11/02 12:33:14;;;;;;;5.78;0.90;;;17.40;67.10;;;;;;4966487;28;20500;-40
2022/11/02 12:35:43;;;;;;;3.78;0.73;;;17.80;66.30;;;;;;4961520;28;20121;-40
2022/11/02 12:38:27;;;;;;;9.02;0.90;;;17.90;65.00;;;;;;4966715;28;20050;-41
2022/11/02 12:41:18;;;;;;;4.55;0.77;;;17.80;64.70;;;;;;4964540;28;20043;-39
2022/11/02 12:43:47;;;;;;;6.00;0.73;;;17.50;66.70;;;;;;4961913;28;20543;-42
2022/11/02 12:46:25;;;;;;;4.22;0.40;;;17.60;67.80;;;;;;4966928;28;20042;-42
2022/11/02 12:49:02;;;;;;;2.83;0.40;;;18.10;66.60;;;;;;4955934;28;20148;-40
2022/11/02 12:51:55;;;;;;;7.43;0.55;;;18.70;65.00;;;;;;4957664;28;20381;-40
2022/11/02 12:54:27;;;;;;;7.53;0.70;;;19.40;62.80;;;;;;4958290;28;20037;-41
2022/11/02 12:56:53;;;;;;;6.70;0.80;;;19.70;62.90;;;;;;4963595;28;20073;-42
2022/11/02 12:59:27;;;;;;;5.18;0.73;;;19.70;61.10;;;;;;4958487;28;20126;-43
2022/11/02 13:02:14;;;;;;;3.83;0.73;;;19.90;60.60;;;;;;4956949;28;20451;-42
2022/11/02 13:04:56;;;;;;;5.10;0.77;;;19.70;58.20;;;;;;4955999;28;20058;-40
2022/11/02 13:07:38;;;;;;;8.75;0.70;;;19.80;60.00;;;;;;4953434;28;20455;-41
2022/11/02 13:10:18;;;;;;;4.90;0.85;;;18.90;58.80;;;;;;4966209;28;20046;-42
2022/11/02 13:12:47;;;;;;;3.92;0.82;;;17.90;64.60;;;;;;4969566;28;20043;-40
2022/11/02 13:15:17;;;;;;;7.40;1.05;;;17.10;70.00;;;;;;4949355;28;20393;-42
2022/11/02 13:17:50;;;;;;;6.90;1.10;;;16.90;73.60;;;;;;4955251;28;20053;-41
2022/11/02 13:20:27;;;;;;;8.50;1.30;;;16.80;74.10;;;;;;4956262;28;20040;-40
2022/11/02 13:23:27;;;;;;;7.10;0.88;;;17.40;74.40;;;;;;4953483;28;20043;-42